Time;durP1;ratioP1;P1;durP2;ratioP2;P2;SDS_P1;SDS_P2;PMS_P1;PMS_P2;Temp;Humidity;BMP_temperature;BMP_pressure;BME280_temperature;BME280_humidity;BME280_pressure;Samples;Min_cycle;Max_cycle;Signal;HPM_P1;HPM_P2
2022/04/24 00:00:17;;;;;;;8.05;6.93;;;;;;;10.20;68.36;67906.31;5063797;28;20455;-86
2022/04/24 00:02:42;;;;;;;8.20;7.13;;;;;;;10.13;67.67;67898.97;5061001;28;20102;-84
2022/04/24 00:05:08;;;;;;;10.90;6.78;;;;;;;10.01;67.26;67885.34;5058011;28;20075;-85
2022/04/24 00:07:34;;;;;;;8.45;7.65;;;;;;;10.05;68.09;67890.44;5065893;28;20069;-88
2022/04/24 00:09:59;;;;;;;8.23;7.40;;;;;;;;;;5063921;28;20040;-87
2022/04/24 00:12:24;;;;;;;8.60;7.57;;;;;;;10.05;68.67;67893.09;5058232;28;20044;-85
2022/04/24 00:14:50;;;;;;;8.63;7.50;;;;;;;10.06;68.52;67893.66;5063320;28;20362;-86
2022/04/24 00:17:16;;;;;;;9.38;7.80;;;;;;;10.04;68.42;67889.31;5060559;28;20409;-86
2022/04/24 00:19:42;;;;;;;9.55;8.52;;;;;;;;;;5069991;28;20270;-84
2022/04/24 00:22:07;;;;;;;9.13;7.95;;;;;;;10.01;68.57;67880.59;5066430;28;20135;-85
2022/04/24 00:24:33;;;;;;;9.15;7.95;;;;;;;9.96;68.82;67879.69;5060638;28;20500;-85
2022/04/24 00:26:59;;;;;;;9.70;8.38;;;;;;;9.97;69.13;67886.69;5060549;28;20052;-84
2022/04/24 00:29:24;;;;;;;9.27;7.80;;;;;;;9.92;68.72;67878.34;5062379;28;20072;-87
2022/04/24 00:31:50;;;;;;;10.40;7.63;;;;;;;9.91;69.16;67877.78;5067407;28;20040;-86
2022/04/24 00:34:15;;;;;;;9.07;8.05;;;;;;;9.91;69.63;67874.56;5055622;28;20174;-84
2022/04/24 00:36:41;;;;;;;10.10;9.02;;;;;;;9.84;69.77;67867.19;5063233;28;20351;-85
2022/04/24 00:39:06;;;;;;;9.18;8.23;;;;;;;9.79;69.91;67861.53;5060209;28;20068;-86
2022/04/24 00:41:32;;;;;;;10.85;8.23;;;;;;;;;;5058845;28;20048;-85
2022/04/24 00:43:57;;;;;;;9.65;8.75;;;;;;;9.74;69.63;67857.94;5059248;28;20055;-85
2022/04/24 00:46:51;;;;;;;11.45;8.35;;;;;;;9.71;70.47;67853.00;5061946;28;20040;-85
2022/04/24 00:49:16;;;;;;;9.60;8.30;;;;;;;9.69;70.20;67850.19;5046014;28;20080;-84
2022/04/24 00:51:45;;;;;;;9.32;8.25;;;;;;;9.63;70.57;67848.69;5061273;28;20106;-85
2022/04/24 00:54:11;;;;;;;9.27;8.13;;;;;;;9.64;70.90;67839.22;5062697;28;20049;-87
2022/04/24 00:56:38;;;;;;;9.10;8.20;;;;;;;9.60;70.87;67840.53;5059705;28;20046;-85
2022/04/24 00:59:04;;;;;;;10.18;8.10;;;;;;;;;;5064514;28;20388;-86
2022/04/24 01:01:31;;;;;;;10.57;8.95;;;;;;;9.53;70.87;67832.63;5072285;28;20180;-87
2022/04/24 01:04:00;;;;;;;11.07;9.35;;;;;;;9.52;71.01;67831.47;5079354;28;20033;-85
2022/04/24 01:06:31;;;;;;;10.30;8.68;;;;;;;9.53;71.46;67832.06;5073731;28;20037;-86
2022/04/24 01:09:17;;;;;;;10.82;8.43;;;;;;;9.48;71.64;67826.94;5082426;28;20037;-87
2022/04/24 01:11:45;;;;;;;9.70;8.73;;;;;;;9.47;71.65;67826.38;5070435;28;20028;-85
2022/04/24 01:14:11;;;;;;;11.05;8.13;;;;;;;9.48;71.83;67826.94;5074467;28;20037;-87
2022/04/24 01:16:36;;;;;;;10.93;8.43;;;;;;;;;;5069641;28;20064;-86
2022/04/24 01:19:03;;;;;;;9.18;7.40;;;;;;;9.30;72.09;67807.09;5067986;28;20048;-87
2022/04/24 01:21:29;;;;;;;9.52;8.63;;;;;;;9.34;72.56;67814.28;5070078;28;20043;-88
2022/04/24 01:23:54;;;;;;;10.52;8.38;;;;;;;9.29;72.56;67810.69;5065874;28;20131;-86
2022/04/24 01:26:19;;;;;;;11.40;9.00;;;;;;;9.32;72.89;67809.38;5068108;28;20381;-87
2022/04/24 01:28:45;;;;;;;11.60;9.50;;;;;;;9.30;73.18;67806.53;5065279;28;20040;-87
2022/04/24 01:31:10;;;;;;;9.75;8.50;;;;;;;9.26;73.56;67803.13;5065490;28;20049;-86
2022/04/24 01:33:36;;;;;;;11.85;8.77;;;;;;;9.24;73.55;67800.88;5059798;28;20450;-87
2022/04/24 01:36:02;;;;;;;10.63;8.95;;;;;;;9.21;73.78;67799.56;5051421;28;20050;-87
2022/04/24 01:38:29;;;;;;;9.88;8.85;;;;;;;9.22;73.94;67798.59;5057853;28;20045;-87
2022/04/24 01:40:55;;;;;;;10.05;8.45;;;;;;;9.18;74.25;67799.38;5050261;28;20057;-87
2022/04/24 01:43:20;;;;;;;10.02;8.80;;;;;;;9.18;74.46;67794.06;5059831;28;20538;-87
2022/04/24 01:45:45;;;;;;;9.88;8.77;;;;;;;9.21;74.30;67797.47;5062180;28;20036;-87
2022/04/24 01:48:11;;;;;;;12.45;9.13;;;;;;;;;;5062742;28;20526;-87
2022/04/24 01:50:36;;;;;;;11.02;9.63;;;;;;;9.16;74.76;67794.44;5058251;28;20520;-88
2022/04/24 01:53:02;;;;;;;10.30;8.25;;;;;;;9.11;74.79;67786.13;5059833;28;20041;-87
2022/04/24 01:55:27;;;;;;;9.68;8.57;;;;;;;9.10;75.04;67785.00;5051019;28;20067;-87
2022/04/24 01:57:53;;;;;;;10.40;9.30;;;;;;;9.08;75.34;67785.38;5064206;28;20583;-87
2022/04/24 02:00:18;;;;;;;9.75;8.43;;;;;;;9.06;75.24;67785.19;5064397;28;20141;-87
2022/04/24 02:02:43;;;;;;;11.88;8.30;;;;;;;8.98;75.53;67777.28;5060540;28;20044;-87
2022/04/24 02:05:09;;;;;;;13.20;8.68;;;;;;;9.02;75.65;67775.94;5059259;28;20049;-88
2022/04/24 02:07:34;;;;;;;10.05;9.02;;;;;;;9.01;75.99;67774.81;5052393;28;20515;-88
2022/04/24 02:09:59;;;;;;;9.82;8.82;;;;;;;9.01;75.89;67774.81;5066757;28;20075;-87
2022/04/24 02:12:25;;;;;;;11.23;8.85;;;;;;;8.98;76.31;67771.41;5060042;28;20040;-87
2022/04/24 02:14:50;;;;;;;9.20;8.02;;;;;;;8.84;76.68;67755.53;5061686;28;20064;-88
2022/04/24 02:17:15;;;;;;;10.35;8.15;;;;;;;8.87;76.50;67761.59;5058776;28;20041;-87
2022/04/24 02:19:41;;;;;;;10.18;8.77;;;;;;;8.87;76.77;67764.25;5048667;28;20041;-87
2022/04/24 02:22:06;;;;;;;10.07;8.30;;;;;;;8.86;76.72;67757.78;5061505;28;20071;-88
2022/04/24 02:24:31;;;;;;;11.20;8.25;;;;;;;8.81;77.08;67753.25;5053942;28;20451;-90
2022/04/24 02:26:57;;;;;;;13.38;9.05;;;;;;;8.82;77.06;67753.81;5060106;28;20032;-91
2022/04/24 02:29:30;;;;;;;12.77;8.40;;;;;;;8.75;76.96;67746.47;5061490;28;20052;-89
2022/04/24 02:31:56;;;;;;;9.30;7.70;;;;;;;8.74;77.05;67750.63;5043793;28;20037;-86
2022/04/24 02:34:22;;;;;;;9.35;8.35;;;;;;;8.74;77.54;67747.41;5040819;28;20261;-85
2022/04/24 02:36:47;;;;;;;9.57;8.50;;;;;;;8.72;77.09;67745.16;5061579;28;20721;-85
2022/04/24 02:39:13;;;;;;;11.88;8.90;;;;;;;8.66;77.44;67735.69;5009041;28;20107;-88
2022/04/24 02:41:38;;;;;;;10.15;8.25;;;;;;;8.66;77.29;67741.59;4997449;28;20533;-88
2022/04/24 02:44:04;;;;;;;9.90;8.43;;;;;;;8.61;77.96;67730.59;4969810;28;20046;-87
2022/04/24 02:46:29;;;;;;;11.68;8.52;;;;;;;8.56;77.96;67728.16;4935104;28;20039;-86
2022/04/24 02:48:54;;;;;;;9.02;8.10;;;;;;;8.58;77.62;67727.78;4957023;28;20067;-86
2022/04/24 02:51:20;;;;;;;8.95;7.93;;;;;;;8.61;77.67;67733.25;4951099;28;20106;-87
2022/04/24 02:53:46;;;;;;;11.07;8.60;;;;;;;8.56;77.68;67724.94;4953108;28;20055;-87
2022/04/24 02:56:11;;;;;;;11.18;8.35;;;;;;;;;;4921360;28;20150;-87
2022/04/24 02:58:38;;;;;;;9.57;7.40;;;;;;;8.52;78.02;67720.41;4944534;28;20074;-86
2022/04/24 03:01:04;;;;;;;10.02;7.78;;;;;;;8.51;77.80;67719.25;4945022;28;20534;-87
2022/04/24 03:03:30;;;;;;;10.65;7.90;;;;;;;8.47;78.27;67717.97;4933787;28;20055;-87
2022/04/24 03:05:55;;;;;;;9.45;7.13;;;;;;;8.44;77.84;67711.34;4995888;28;20449;-88
2022/04/24 03:08:21;;;;;;;9.63;7.18;;;;;;;8.47;78.10;67717.41;4999075;28;20046;-88
2022/04/24 03:10:46;;;;;;;9.55;8.30;;;;;;;8.47;77.89;67714.75;4986602;28;20591;-88
2022/04/24 03:13:12;;;;;;;11.50;7.78;;;;;;;8.44;78.06;67711.91;4996348;28;20136;-88
2022/04/24 03:15:39;;;;;;;9.27;7.15;;;;;;;8.40;78.19;67712.09;4996937;28;20141;-87
2022/04/24 03:18:05;;;;;;;8.80;7.13;;;;;;;8.39;78.30;67711.53;5056138;28;20080;-89
2022/04/24 03:20:31;;;;;;;10.02;7.65;;;;;;;8.36;78.49;67708.69;5067741;28;20047;-89
2022/04/24 03:22:57;;;;;;;10.40;7.07;;;;;;;8.29;78.50;67698.13;5057675;28;20399;-89
2022/04/24 03:25:22;;;;;;;9.35;7.50;;;;;;;8.29;78.79;67698.13;5066553;28;20642;-88
2022/04/24 03:27:48;;;;;;;8.50;7.20;;;;;;;8.24;78.68;67689.81;5062412;28;20052;-88
2022/04/24 03:30:13;;;;;;;10.57;7.60;;;;;;;8.19;78.62;67684.13;5052441;28;20045;-89
2022/04/24 03:32:39;;;;;;;9.60;6.90;;;;;;;8.18;78.58;67685.66;5062666;28;20047;-89
2022/04/24 03:35:09;;;;;;;10.38;7.40;;;;;;;8.18;78.60;67682.44;5065455;28;20037;-89
2022/04/24 03:37:35;;;;;;;8.70;7.03;;;;;;;8.14;78.54;67681.13;5060827;28;20567;-89
2022/04/24 03:40:01;;;;;;;8.75;6.88;;;;;;;8.13;78.55;67682.63;5057035;28;20047;-88
2022/04/24 03:42:26;;;;;;;8.98;7.38;;;;;;;8.09;78.70;67675.47;5059805;28;20045;-87
2022/04/24 03:44:56;;;;;;;8.35;7.15;;;;;;;8.06;78.70;67672.63;5049269;28;20043;-87
2022/04/24 03:47:22;;;;;;;8.80;7.15;;;;;;;8.06;79.26;67672.63;5081224;28;20048;-86
2022/04/24 03:49:48;;;;;;;8.38;6.40;;;;;;;8.00;78.62;67662.59;5066254;28;20079;-86
2022/04/24 03:52:13;;;;;;;11.60;7.03;;;;;;;8.03;78.71;67666.03;5042897;28;20073;-85
2022/04/24 03:54:39;;;;;;;9.32;6.72;;;;;;;;;;4973643;28;20129;-86
2022/04/24 03:57:04;;;;;;;11.18;6.60;;;;;;;7.93;78.76;67654.69;4961173;28;20090;-87
2022/04/24 03:59:30;;;;;;;8.95;6.63;;;;;;;7.91;78.70;67652.97;4939727;28;20047;-86
2022/04/24 04:01:55;;;;;;;8.30;6.85;;;;;;;7.86;78.85;67647.91;4969134;28;20042;-85
2022/04/24 04:04:20;;;;;;;10.10;7.50;;;;;;;;;;4959547;28;20117;-85
2022/04/24 04:06:46;;;;;;;9.50;6.50;;;;;;;7.88;78.66;67650.19;4966501;28;20121;-88
2022/04/24 04:09:11;;;;;;;9.43;7.30;;;;;;;7.88;78.82;67652.81;4977037;28;20054;-86
2022/04/24 04:11:37;;;;;;;8.63;7.15;;;;;;;7.84;78.79;67645.63;4979540;28;20673;-87
2022/04/24 04:14:02;;;;;;;7.10;6.13;;;;;;;7.80;78.76;67641.13;4974441;28;20143;-87
2022/04/24 04:16:27;;;;;;;7.43;6.63;;;;;;;7.79;79.18;67642.63;4969166;28;20050;-86
2022/04/24 04:18:54;;;;;;;9.60;6.82;;;;;;;7.77;78.93;67637.72;5000454;28;20091;-86
2022/04/24 04:21:19;;;;;;;7.95;6.43;;;;;;;7.68;79.11;67628.09;5070846;28;20040;-86
2022/04/24 04:23:45;;;;;;;10.00;7.00;;;;;;;7.69;79.37;67634.50;5053622;28;20044;-87
2022/04/24 04:26:10;;;;;;;9.40;6.82;;;;;;;7.72;79.01;67637.34;5067724;28;20131;-86
2022/04/24 04:28:36;;;;;;;7.78;6.70;;;;;;;7.72;78.92;67634.69;5071526;28;20049;-85
2022/04/24 04:31:01;;;;;;;8.95;6.47;;;;;;;7.64;78.92;67623.56;5074438;28;20044;-85
2022/04/24 04:33:27;;;;;;;8.82;6.47;;;;;;;;;;5085938;28;20048;-86
2022/04/24 04:35:53;;;;;;;12.55;6.82;;;;;;;7.65;78.61;67629.41;5071982;28;20048;-86
2022/04/24 04:38:18;;;;;;;8.02;6.90;;;;;;;7.67;78.55;67632.25;5062169;28;20045;-85
2022/04/24 04:40:43;;;;;;;6.50;5.63;;;;;;;7.61;78.75;67622.25;5064614;28;20116;-85
2022/04/24 04:43:09;;;;;;;9.48;5.85;;;;;;;7.65;78.66;67624.69;5063765;28;20041;-85
2022/04/24 04:45:34;;;;;;;9.35;6.50;;;;;;;7.65;78.59;67629.41;5059972;28;20121;-85
2022/04/24 04:48:00;;;;;;;7.97;5.88;;;;;;;7.55;79.00;67618.66;5061763;28;20588;-85
2022/04/24 04:50:25;;;;;;;7.18;5.97;;;;;;;7.60;78.88;67623.78;5063852;28;20096;-85
2022/04/24 04:52:51;;;;;;;8.80;6.13;;;;;;;7.64;78.58;67628.84;5056129;28;20088;-85
2022/04/24 04:55:16;;;;;;;7.63;5.95;;;;;;;7.65;78.52;67629.41;5051528;28;20444;-85
2022/04/24 04:57:42;;;;;;;7.40;5.57;;;;;;;7.64;77.92;67626.19;5059654;28;20040;-85
2022/04/24 05:00:09;;;;;;;7.47;6.07;;;;;;;7.69;78.29;67631.31;5063160;28;20052;-85
2022/04/24 05:02:36;;;;;;;7.47;6.50;;;;;;;7.70;78.58;67629.78;5063317;28;20045;-86
2022/04/24 05:05:03;;;;;;;7.43;6.20;;;;;;;7.74;78.41;67636.97;5060955;28;20556;-85
2022/04/24 05:07:28;;;;;;;8.38;5.60;;;;;;;7.73;78.17;67640.56;5061465;28;20044;-85
2022/04/24 05:09:53;;;;;;;7.38;5.97;;;;;;;7.70;78.20;67635.09;5057052;28;20048;-85
2022/04/24 05:12:19;;;;;;;8.95;6.05;;;;;;;7.75;77.77;67640.75;5058701;28;20040;-86
2022/04/24 05:14:44;;;;;;;8.18;6.10;;;;;;;7.75;77.71;67635.44;5059870;28;20040;-85
2022/04/24 05:17:09;;;;;;;8.40;5.72;;;;;;;7.78;77.70;67641.50;5057149;28;20036;-85
2022/04/24 05:19:35;;;;;;;7.38;5.97;;;;;;;7.81;77.62;67644.31;5059433;28;20068;-87
2022/04/24 05:22:00;;;;;;;7.30;6.07;;;;;;;;;;5062247;28;20888;-85
2022/04/24 05:24:25;;;;;;;9.02;6.28;;;;;;;7.85;77.38;67652.06;5057165;28;20064;-85
2022/04/24 05:26:51;;;;;;;8.00;5.53;;;;;;;7.82;76.76;67646.00;5065515;28;20111;-85
2022/04/24 05:29:17;;;;;;;8.02;6.00;;;;;;;7.89;76.75;67656.59;5058654;28;20090;-86
2022/04/24 05:31:42;;;;;;;9.25;6.18;;;;;;;7.91;76.64;67656.22;5064876;28;20062;-85
2022/04/24 05:34:08;;;;;;;7.28;5.72;;;;;;;7.93;76.50;67654.69;5064483;28;20491;-85
2022/04/24 05:36:33;;;;;;;8.38;5.85;;;;;;;7.94;76.70;67661.13;5054305;28;20048;-85
2022/04/24 05:38:59;;;;;;;9.15;5.53;;;;;;;7.95;76.71;67662.25;5077717;28;20036;-85
2022/04/24 05:41:24;;;;;;;7.15;5.72;;;;;;;8.03;76.50;67666.03;5061273;28;20113;-85
2022/04/24 05:43:49;;;;;;;8.48;5.40;;;;;;;8.04;76.26;67667.72;5066393;28;20047;-85
2022/04/24 05:46:15;;;;;;;7.50;4.97;;;;;;;8.00;76.00;67663.19;5061679;28;20040;-86
2022/04/24 05:48:40;;;;;;;8.07;6.03;;;;;;;8.11;75.98;67680.38;5063947;28;20048;-87
2022/04/24 05:51:05;;;;;;;8.15;6.00;;;;;;;8.18;75.65;67685.09;5059762;28;20135;-87
2022/04/24 05:53:31;;;;;;;7.70;5.82;;;;;;;8.24;75.33;67694.53;5055665;28;20044;-88
2022/04/24 05:55:57;;;;;;;6.07;5.20;;;;;;;8.25;75.00;67690.94;5056090;28;20055;-86
2022/04/24 05:58:22;;;;;;;6.70;5.40;;;;;;;8.29;74.95;67695.47;5066919;28;20113;-86
2022/04/24 06:00:48;;;;;;;7.93;5.43;;;;;;;8.33;74.76;67705.28;5066917;28;20036;-86
2022/04/24 06:03:13;;;;;;;8.00;5.97;;;;;;;8.38;75.19;67710.41;5062905;28;20123;-86
2022/04/24 06:05:39;;;;;;;7.18;5.78;;;;;;;8.43;74.55;67716.09;5039414;28;20055;-86
2022/04/24 06:08:04;;;;;;;7.65;5.80;;;;;;;8.47;74.01;67717.41;5010150;28;20605;-86
2022/04/24 06:10:30;;;;;;;9.43;6.57;;;;;;;;;;5011327;28;20045;-85
2022/04/24 06:12:57;;;;;;;8.32;5.85;;;;;;;8.54;73.78;67722.66;5033406;28;20906;-87
2022/04/24 06:15:27;;;;;;;9.82;6.05;;;;;;;8.63;73.77;67734.94;5023862;28;20071;-87
2022/04/24 06:17:54;;;;;;;7.32;5.13;;;;;;;8.68;73.72;67737.97;5021514;28;20045;-86
2022/04/24 06:20:21;;;;;;;8.55;5.10;;;;;;;8.72;73.19;67743.06;5003760;28;20049;-86
2022/04/24 06:22:49;;;;;;;8.90;5.72;;;;;;;8.72;72.82;67745.72;5027374;28;20053;-87
2022/04/24 06:25:18;;;;;;;8.73;5.65;;;;;;;;;;5022407;28;20136;-87
2022/04/24 06:27:48;;;;;;;6.47;5.30;;;;;;;8.88;72.35;67760.06;5017667;28;20041;-89
2022/04/24 06:30:14;;;;;;;8.23;5.53;;;;;;;;;;5025236;28;20052;-87
2022/04/24 06:32:41;;;;;;;7.20;5.68;;;;;;;9.04;72.59;67780.84;5014080;28;20053;-85
2022/04/24 06:35:11;;;;;;;8.25;5.07;;;;;;;9.00;71.97;67776.88;5005472;28;20184;-87
2022/04/24 06:37:38;;;;;;;6.18;4.95;;;;;;;9.11;72.31;67786.13;5031601;28;20041;-88
2022/04/24 06:40:08;;;;;;;7.32;5.53;;;;;;;9.20;71.49;67798.41;5052587;28;20106;-87
2022/04/24 06:42:34;;;;;;;7.25;5.15;;;;;;;9.19;71.19;67795.19;5048546;28;20072;-88
2022/04/24 06:45:00;;;;;;;6.75;5.57;;;;;;;9.23;71.22;67805.03;5058380;28;20130;-86
2022/04/24 06:47:27;;;;;;;8.40;5.55;;;;;;;;;;5042822;28;20042;-86
2022/04/24 06:49:53;;;;;;;8.98;5.75;;;;;;;9.35;71.10;67812.78;5009539;28;20048;-86
2022/04/24 06:52:19;;;;;;;7.10;5.53;;;;;;;9.42;70.73;67820.13;5010056;28;20096;-85
2022/04/24 06:54:45;;;;;;;6.82;5.65;;;;;;;9.45;70.99;67823.53;5015880;28;20041;-84
2022/04/24 06:57:10;;;;;;;6.88;5.72;;;;;;;9.53;71.13;67832.06;4991027;28;20046;-84
2022/04/24 06:59:36;;;;;;;7.50;6.63;;;;;;;9.62;70.33;67848.13;5001928;28;20052;-84
2022/04/24 07:02:01;;;;;;;8.95;5.93;;;;;;;9.71;70.34;67855.66;5008627;28;20038;-83
2022/04/24 07:04:26;;;;;;;7.05;5.03;;;;;;;9.73;69.65;67856.81;5003872;28;20184;-84
2022/04/24 07:06:52;;;;;;;7.78;5.97;;;;;;;;;;4992851;28;20048;-84
2022/04/24 07:09:17;;;;;;;7.77;6.23;;;;;;;;;;5002801;28;20210;-83
2022/04/24 07:11:43;;;;;;;7.43;5.70;;;;;;;9.82;69.95;67864.94;4990515;28;20396;-84
2022/04/24 07:14:08;;;;;;;9.35;6.95;;;;;;;9.91;69.02;67874.56;5047242;28;20275;-83
2022/04/24 07:16:35;;;;;;;9.40;6.20;;;;;;;9.97;69.15;67883.47;5063502;28;20045;-83
2022/04/24 07:19:00;;;;;;;8.90;6.18;;;;;;;;;;5050837;28;20076;-83
2022/04/24 07:21:26;;;;;;;6.38;5.03;;;;;;;;;;5060868;28;20072;-83
2022/04/24 07:23:51;;;;;;;9.10;5.72;;;;;;;10.12;68.34;67897.81;5062509;28;20454;-83
2022/04/24 07:26:16;;;;;;;7.57;6.20;;;;;;;10.20;68.81;67909.00;5060460;28;20049;-85
2022/04/24 07:28:42;;;;;;;8.93;6.40;;;;;;;10.29;68.08;67919.78;5064186;28;20048;-84
2022/04/24 07:31:07;;;;;;;7.60;5.85;;;;;;;10.34;68.20;67922.22;5067145;28;20183;-84
2022/04/24 07:33:33;;;;;;;8.48;6.63;;;;;;;10.52;67.53;67942.66;5065904;28;20044;-84
2022/04/24 07:35:59;;;;;;;8.95;7.00;;;;;;;10.51;66.51;67944.19;5066137;28;20052;-84
2022/04/24 07:38:24;;;;;;;9.60;6.43;;;;;;;10.51;67.73;67941.53;5061018;28;20185;-84
2022/04/24 07:40:50;;;;;;;9.25;6.38;;;;;;;10.61;67.16;67952.28;5064983;28;20083;-84
2022/04/24 07:43:15;;;;;;;6.72;6.03;;;;;;;10.68;66.96;67959.69;5063883;28;20040;-84
2022/04/24 07:45:43;;;;;;;9.20;6.22;;;;;;;10.76;66.75;67974.06;5070564;28;20036;-84
2022/04/24 07:48:11;;;;;;;8.93;5.90;;;;;;;10.90;67.03;67989.41;5066562;28;20041;-84
2022/04/24 07:50:44;;;;;;;10.15;6.07;;;;;;;10.96;65.91;67990.88;5058346;28;20140;-84
2022/04/24 07:53:11;;;;;;;7.65;5.78;;;;;;;11.01;65.75;68002.47;5067804;28;20549;-84
2022/04/24 07:55:36;;;;;;;7.60;6.72;;;;;;;;;;5068534;28;20496;-86
2022/04/24 07:58:02;;;;;;;6.38;5.65;;;;;;;11.06;65.25;68002.81;5066323;28;20036;-83
2022/04/24 08:00:32;;;;;;;7.13;6.35;;;;;;;11.13;65.43;68014.94;5070257;28;20044;-84
2022/04/24 08:03:12;;;;;;;7.03;5.80;;;;;;;11.28;65.34;68029.34;5075505;28;20048;-84
2022/04/24 08:05:40;;;;;;;8.65;6.28;;;;;;;11.38;64.53;68038.00;5080467;28;20056;-84
2022/04/24 08:08:20;;;;;;;7.47;6.38;;;;;;;11.50;64.67;68051.06;5071623;28;20395;-85
2022/04/24 08:10:50;;;;;;;9.80;6.60;;;;;;;11.63;64.34;68065.28;5064278;28;20045;-84
2022/04/24 08:13:17;;;;;;;8.32;5.65;;;;;;;11.75;64.85;68081.56;5070572;28;20044;-85
2022/04/24 08:15:43;;;;;;;7.75;6.53;;;;;;;11.93;63.81;68099.38;5086075;28;20431;-84
2022/04/24 08:18:11;;;;;;;8.57;6.03;;;;;;;11.93;63.21;68099.38;5069547;28;20028;-84
2022/04/24 08:20:37;;;;;;;6.97;6.05;;;;;;;;;;5068150;28;20075;-84
2022/04/24 08:23:03;;;;;;;9.13;6.25;;;;;;;12.12;63.40;68120.38;5071303;28;20040;-85
2022/04/24 08:25:36;;;;;;;10.30;6.25;;;;;;;12.22;63.08;68125.84;5071447;28;20496;-85
2022/04/24 08:28:06;;;;;;;8.43;6.05;;;;;;;12.29;62.67;68133.81;5066997;28;20492;-85
2022/04/24 08:30:33;;;;;;;9.07;6.90;;;;;;;12.44;61.41;68155.06;5069921;28;20098;-85
2022/04/24 08:32:58;;;;;;;8.20;6.13;;;;;;;12.37;62.00;68153.56;5073006;28;20055;-87
2022/04/24 08:35:24;;;;;;;11.27;6.43;;;;;;;12.51;61.68;68165.66;5071373;28;20057;-88
2022/04/24 08:37:49;;;;;;;7.88;6.03;;;;;;;12.68;61.35;68182.31;5073237;28;20096;-85
2022/04/24 08:40:17;;;;;;;11.68;6.45;;;;;;;12.73;60.46;68193.34;5073854;28;20063;-87
2022/04/24 08:42:43;;;;;;;8.85;7.07;;;;;;;;;;5073582;28;20073;-88
2022/04/24 08:45:15;;;;;;;10.32;5.72;;;;;;;12.85;59.41;68201.09;5060344;28;20092;-88
2022/04/24 08:47:43;;;;;;;7.68;6.00;;;;;;;;;;5060487;28;20668;-88
2022/04/24 08:50:10;;;;;;;7.97;6.45;;;;;;;12.87;59.80;68198.59;5065578;28;20063;-88
2022/04/24 08:52:37;;;;;;;8.30;6.43;;;;;;;13.04;59.85;68214.13;5066048;28;20040;-86
2022/04/24 08:55:03;;;;;;;8.73;6.80;;;;;;;13.21;59.42;68241.47;5083796;28;20029;-87
2022/04/24 08:57:32;;;;;;;7.93;6.53;;;;;;;13.22;58.60;68242.59;5085389;28;20056;-87
2022/04/24 08:59:58;;;;;;;9.90;6.60;;;;;;;13.38;59.32;68265.59;5067884;28;20036;-87
2022/04/24 09:02:24;;;;;;;7.55;6.32;;;;;;;13.63;60.19;68282.75;5070098;28;20630;-88
2022/04/24 09:04:52;;;;;;;10.18;6.85;;;;;;;13.63;58.12;68293.44;5068158;28;20064;-85
2022/04/24 09:07:17;;;;;;;9.07;6.65;;;;;;;;;;5064486;28;20095;-87
2022/04/24 09:09:45;;;;;;;9.88;6.78;;;;;;;13.72;57.61;68297.78;5070044;28;20499;-86
2022/04/24 09:12:11;;;;;;;6.70;5.95;;;;;;;;;;5084227;28;20518;-87
2022/04/24 09:14:37;;;;;;;11.30;6.63;;;;;;;13.97;57.70;68320.31;5064017;28;20040;-86
2022/04/24 09:17:07;;;;;;;9.20;6.63;;;;;;;13.89;55.52;68316.56;5059621;28;20044;-87
2022/04/24 09:19:33;;;;;;;8.95;6.70;;;;;;;13.89;56.83;68316.56;5061230;28;20067;-87
2022/04/24 09:22:07;;;;;;;9.48;7.18;;;;;;;13.79;55.84;68305.75;5059071;28;20039;-87
2022/04/24 09:24:43;;;;;;;8.20;6.95;;;;;;;13.84;56.62;68310.84;5077839;28;20142;-87
2022/04/24 09:27:10;;;;;;;10.02;6.70;;;;;;;14.04;56.96;68325.59;5061596;28;20103;-86
2022/04/24 09:29:38;;;;;;;8.70;6.00;;;;;;;14.25;56.19;68351.03;5063162;28;20573;-86
2022/04/24 09:32:08;;;;;;;7.63;6.75;;;;;;;;;;5056444;28;20407;-86
2022/04/24 09:34:36;;;;;;;9.35;6.50;;;;;;;14.17;56.21;68348.41;5058495;28;20381;-86
2022/04/24 09:37:04;;;;;;;7.75;6.90;;;;;;;14.36;55.67;68361.44;5062881;28;20063;-87
2022/04/24 09:39:32;;;;;;;7.60;6.10;;;;;;;14.59;56.91;68389.75;5065724;28;20138;-87
2022/04/24 09:42:13;;;;;;;8.77;6.50;;;;;;;;;;5063466;28;20290;-88
2022/04/24 09:44:42;;;;;;;8.45;6.88;;;;;;;;;;5064348;28;20064;-87
2022/04/24 09:47:08;;;;;;;7.82;5.88;;;;;;;;;;5068033;28;20411;-87
2022/04/24 09:49:42;;;;;;;8.32;6.00;;;;;;;14.90;55.08;68429.25;5063259;28;20083;-87
2022/04/24 09:52:14;;;;;;;7.40;5.95;;;;;;;;;;5077043;22;20041;-77
2022/04/24 09:54:42;;;;;;;9.20;6.30;;;;;;;15.02;54.45;68437.59;5025050;28;20457;-77
2022/04/24 09:57:12;;;;;;;8.02;6.55;;;;;;;15.19;52.97;68461.16;5048717;28;20040;-77
2022/04/24 09:59:39;;;;;;;11.10;7.22;;;;;;;15.23;53.03;68465.72;5041680;28;20055;-77
2022/04/24 10:02:06;;;;;;;8.38;7.13;;;;;;;15.21;52.65;68463.44;5027515;28;20101;-77
2022/04/24 10:04:36;;;;;;;7.35;6.30;;;;;;;15.37;52.17;68484.34;5021163;28;20088;-77
2022/04/24 10:07:10;;;;;;;8.98;6.72;;;;;;;15.47;52.21;68493.06;5036790;28;20041;-77
2022/04/24 10:09:36;;;;;;;8.98;6.53;;;;;;;;;;5044428;28;20049;-77
2022/04/24 10:12:04;;;;;;;8.93;6.35;;;;;;;15.44;52.99;68489.06;5046683;28;20043;-77
2022/04/24 10:14:30;;;;;;;8.23;6.22;;;;;;;;;;5014887;28;20068;-77
2022/04/24 10:17:04;;;;;;;9.63;6.30;;;;;;;;;;5044236;28;20056;-77
2022/04/24 10:19:38;;;;;;;8.77;6.00;;;;;;;15.43;50.41;68488.50;5036901;28;20040;-77
2022/04/24 10:22:11;;;;;;;8.70;6.15;;;;;;;15.41;51.89;68486.22;5029357;28;20114;-77
2022/04/24 10:24:41;;;;;;;7.63;5.95;;;;;;;15.44;51.13;68489.63;5053048;28;20486;-77
2022/04/24 10:27:07;;;;;;;7.93;6.13;;;;;;;15.43;51.24;68487.94;5048975;28;20041;-77
2022/04/24 10:29:33;;;;;;;8.35;6.28;;;;;;;15.40;50.95;68479.16;5049222;28;20147;-78
2022/04/24 10:31:59;;;;;;;8.82;5.75;;;;;;;15.53;51.49;68499.88;5048993;28;20031;-77
2022/04/24 10:34:26;;;;;;;7.28;5.35;;;;;;;15.71;52.25;68519.88;5041848;28;20976;-78
2022/04/24 10:37:01;;;;;;;8.15;5.45;;;;;;;15.77;50.59;68521.34;5034702;28;20128;-78
2022/04/24 10:39:28;;;;;;;9.10;6.45;;;;;;;15.73;50.36;68521.56;5048258;28;20045;-79
2022/04/24 10:41:57;;;;;;;8.48;6.20;;;;;;;15.89;50.94;68534.44;5040298;28;20041;-78
2022/04/24 10:44:23;;;;;;;10.05;6.72;;;;;;;15.84;50.20;68534.09;5042358;28;20041;-78
2022/04/24 10:46:49;;;;;;;7.63;6.13;;;;;;;15.93;49.70;68538.97;5029363;28;20124;-79
2022/04/24 10:49:16;;;;;;;8.52;5.97;;;;;;;16.01;50.42;68552.91;5049488;28;20049;-77
2022/04/24 10:51:44;;;;;;;9.32;5.88;;;;;;;15.97;49.43;68548.34;5018280;28;20049;-78
2022/04/24 10:54:12;;;;;;;8.65;5.97;;;;;;;;;;5043979;28;20065;-79
2022/04/24 10:56:39;;;;;;;8.35;5.60;;;;;;;16.09;49.66;68556.09;5045608;28;20052;-78
2022/04/24 10:59:16;;;;;;;9.07;6.28;;;;;;;16.13;47.97;68566.56;5024701;28;20033;-77
2022/04/24 11:01:45;;;;;;;7.20;5.85;;;;;;;16.09;49.58;68556.66;5042491;28;20067;-78
2022/04/24 11:04:14;;;;;;;7.10;5.72;;;;;;;16.24;48.89;68568.38;5047531;28;20033;-77
2022/04/24 11:06:50;;;;;;;11.48;5.95;;;;;;;;;;5018126;28;20038;-78
2022/04/24 11:09:18;;;;;;;7.60;5.00;;;;;;;16.68;49.87;68622.19;5045992;28;20587;-78
2022/04/24 11:11:47;;;;;;;8.45;5.97;;;;;;;16.75;47.02;68629.63;5016879;28;20064;-78
2022/04/24 11:14:12;;;;;;;6.80;6.00;;;;;;;16.76;47.85;68642.09;5045799;28;20072;-77
2022/04/24 11:16:38;;;;;;;7.28;6.05;;;;;;;;;;5042123;28;20065;-78
2022/04/24 11:19:03;;;;;;;8.37;6.37;;;;;;;;;;5043757;28;20037;-79
2022/04/24 11:21:28;;;;;;;7.27;5.23;;;;;;;17.10;46.96;68674.94;5021172;28;20284;-78
2022/04/24 11:24:00;;;;;;;7.60;5.00;;;;;;;;;;5041055;28;20044;-80
2022/04/24 11:26:26;;;;;;;6.55;5.18;;;;;;;;;;5045202;28;20037;-79
2022/04/24 11:28:51;;;;;;;7.28;5.15;;;;;;;17.05;47.37;68663.28;5045946;28;20049;-78
2022/04/24 11:31:17;;;;;;;9.05;6.05;;;;;;;;;;5036696;28;20045;-80
2022/04/24 11:34:01;;;;;;;6.83;5.40;;;;;;;17.09;46.60;68667.84;5043947;28;20045;-78
2022/04/24 11:36:31;;;;;;;6.00;4.90;;;;;;;;;;5007490;28;20338;-77
2022/04/24 11:38:57;;;;;;;7.13;4.90;;;;;;;17.48;45.66;68711.19;5023582;28;20053;-81
2022/04/24 11:41:27;;;;;;;9.70;5.00;;;;;;;17.55;47.04;68724.56;5017001;28;20558;-79
2022/04/24 11:44:03;;;;;;;8.18;4.60;;;;;;;17.63;45.20;68728.31;5046026;28;20045;-80
2022/04/24 11:52:00;;;;;;;8.20;5.00;;;;;;;;;;5051115;28;20044;-79
2022/04/24 11:54:25;;;;;;;8.38;5.38;;;;;;;;;;5038417;28;20045;-78
2022/04/24 11:56:51;;;;;;;6.93;4.70;;;;;;;17.74;44.83;68740.84;5069862;28;20053;-79
2022/04/24 11:59:19;;;;;;;7.75;4.78;;;;;;;;;;5062850;28;20107;-78
2022/04/24 12:01:46;;;;;;;9.25;5.05;;;;;;;17.65;44.48;68727.91;5050095;28;20037;-78